sensor_id;sensor_type;location;lat;lon;timestamp;P1;durP1;ratioP1;P2;durP2;ratioP2
53533;SDS011;39421;53.204;6.568;2023-05-10T00:00:42;13.30;;;8.80;;
53533;SDS011;39421;53.204;6.568;2023-05-10T00:03:09;13.93;;;9.15;;
53533;SDS011;39421;53.204;6.568;2023-05-10T00:05:35;13.20;;;8.85;;
53533;SDS011;39421;53.204;6.568;2023-05-10T00:08:01;14.35;;;9.30;;
53533;SDS011;39421;53.204;6.568;2023-05-10T00:10:27;15.13;;;9.52;;
53533;SDS011;39421;53.204;6.568;2023-05-10T00:12:53;13.63;;;9.33;;
53533;SDS011;39421;53.204;6.568;2023-05-10T00:15:19;12.68;;;8.75;;
53533;SDS011;39421;53.204;6.568;2023-05-10T00:17:45;13.13;;;8.60;;
53533;SDS011;39421;53.204;6.568;2023-05-10T00:20:11;13.40;;;8.77;;
53533;SDS011;39421;53.204;6.568;2023-05-10T00:22:37;12.23;;;8.23;;
53533;SDS011;39421;53.204;6.568;2023-05-10T00:25:04;13.77;;;9.13;;
53533;SDS011;39421;53.204;6.568;2023-05-10T00:27:30;13.57;;;8.57;;
53533;SDS011;39421;53.204;6.568;2023-05-10T00:29:56;12.98;;;8.32;;
53533;SDS011;39421;53.204;6.568;2023-05-10T00:32:22;12.60;;;8.05;;
53533;SDS011;39421;53.204;6.568;2023-05-10T00:34:48;12.02;;;7.63;;
53533;SDS011;39421;53.204;6.568;2023-05-10T00:37:14;11.68;;;7.13;;
53533;SDS011;39421;53.204;6.568;2023-05-10T00:39:40;11.67;;;7.30;;
53533;SDS011;39421;53.204;6.568;2023-05-10T00:42:06;11.45;;;7.28;;
53533;SDS011;39421;53.204;6.568;2023-05-10T00:44:33;11.43;;;7.50;;
53533;SDS011;39421;53.204;6.568;2023-05-10T00:46:59;11.63;;;7.22;;
53533;SDS011;39421;53.204;6.568;2023-05-10T00:49:25;10.95;;;7.05;;
53533;SDS011;39421;53.204;6.568;2023-05-10T00:51:51;11.27;;;7.20;;
53533;SDS011;39421;53.204;6.568;2023-05-10T00:54:17;11.63;;;7.30;;
53533;SDS011;39421;53.204;6.568;2023-05-10T00:56:44;11.85;;;7.53;;
53533;SDS011;39421;53.204;6.568;2023-05-10T00:59:17;11.63;;;7.40;;
53533;SDS011;39421;53.204;6.568;2023-05-10T01:01:44;10.80;;;6.88;;
53533;SDS011;39421;53.204;6.568;2023-05-10T01:04:14;10.80;;;6.95;;
53533;SDS011;39421;53.204;6.568;2023-05-10T01:06:41;10.52;;;6.90;;
53533;SDS011;39421;53.204;6.568;2023-05-10T01:09:07;10.48;;;6.47;;
53533;SDS011;39421;53.204;6.568;2023-05-10T01:11:36;10.48;;;6.70;;
53533;SDS011;39421;53.204;6.568;2023-05-10T01:14:03;10.60;;;6.50;;
53533;SDS011;39421;53.204;6.568;2023-05-10T01:16:40;10.38;;;6.60;;
53533;SDS011;39421;53.204;6.568;2023-05-10T01:19:07;10.35;;;6.22;;
53533;SDS011;39421;53.204;6.568;2023-05-10T01:34:41;10.95;;;6.85;;
53533;SDS011;39421;53.204;6.568;2023-05-10T01:37:11;13.13;;;7.50;;
53533;SDS011;39421;53.204;6.568;2023-05-10T01:39:44;11.88;;;7.50;;
53533;SDS011;39421;53.204;6.568;2023-05-10T01:42:14;11.30;;;7.25;;
53533;SDS011;39421;53.204;6.568;2023-05-10T01:47:23;11.75;;;7.53;;
53533;SDS011;39421;53.204;6.568;2023-05-10T01:49:53;11.93;;;7.47;;
53533;SDS011;39421;53.204;6.568;2023-05-10T01:52:22;12.75;;;7.95;;
53533;SDS011;39421;53.204;6.568;2023-05-10T01:54:55;12.45;;;7.80;;
53533;SDS011;39421;53.204;6.568;2023-05-10T01:57:22;11.82;;;7.63;;
53533;SDS011;39421;53.204;6.568;2023-05-10T01:59:51;11.95;;;7.60;;
53533;SDS011;39421;53.204;6.568;2023-05-10T02:02:21;11.57;;;7.50;;
53533;SDS011;39421;53.204;6.568;2023-05-10T02:04:49;11.60;;;7.40;;
53533;SDS011;39421;53.204;6.568;2023-05-10T02:07:16;11.75;;;7.55;;
53533;SDS011;39421;53.204;6.568;2023-05-10T02:09:44;11.65;;;7.38;;
53533;SDS011;39421;53.204;6.568;2023-05-10T02:12:13;11.95;;;7.50;;
53533;SDS011;39421;53.204;6.568;2023-05-10T02:14:39;13.27;;;7.93;;
53533;SDS011;39421;53.204;6.568;2023-05-10T02:17:07;12.10;;;8.00;;
53533;SDS011;39421;53.204;6.568;2023-05-10T02:19:33;11.37;;;7.40;;
53533;SDS011;39421;53.204;6.568;2023-05-10T02:22:00;12.43;;;7.82;;
53533;SDS011;39421;53.204;6.568;2023-05-10T02:24:26;11.68;;;7.82;;
53533;SDS011;39421;53.204;6.568;2023-05-10T02:26:54;11.70;;;7.82;;
53533;SDS011;39421;53.204;6.568;2023-05-10T02:29:23;12.13;;;7.78;;
53533;SDS011;39421;53.204;6.568;2023-05-10T02:31:53;11.88;;;8.00;;
53533;SDS011;39421;53.204;6.568;2023-05-10T02:34:24;12.80;;;8.32;;
53533;SDS011;39421;53.204;6.568;2023-05-10T02:36:52;12.55;;;7.85;;
53533;SDS011;39421;53.204;6.568;2023-05-10T02:39:21;12.48;;;8.05;;
53533;SDS011;39421;53.204;6.568;2023-05-10T02:41:48;13.77;;;8.45;;
53533;SDS011;39421;53.204;6.568;2023-05-10T02:44:15;12.77;;;7.80;;
53533;SDS011;39421;53.204;6.568;2023-05-10T02:46:41;12.85;;;8.25;;
53533;SDS011;39421;53.204;6.568;2023-05-10T02:49:08;13.27;;;8.10;;
53533;SDS011;39421;53.204;6.568;2023-05-10T02:51:35;12.85;;;8.38;;
53533;SDS011;39421;53.204;6.568;2023-05-10T02:54:04;14.05;;;9.20;;
53533;SDS011;39421;53.204;6.568;2023-05-10T02:56:33;13.55;;;8.27;;
53533;SDS011;39421;53.204;6.568;2023-05-10T02:59:00;14.85;;;9.05;;
53533;SDS011;39421;53.204;6.568;2023-05-10T03:01:26;14.18;;;8.82;;
53533;SDS011;39421;53.204;6.568;2023-05-10T03:03:52;14.63;;;9.13;;
53533;SDS011;39421;53.204;6.568;2023-05-10T03:06:18;15.20;;;9.70;;
53533;SDS011;39421;53.204;6.568;2023-05-10T03:08:44;14.63;;;9.50;;
53533;SDS011;39421;53.204;6.568;2023-05-10T03:16:22;15.98;;;10.38;;
53533;SDS011;39421;53.204;6.568;2023-05-10T03:18:54;16.00;;;9.93;;
53533;SDS011;39421;53.204;6.568;2023-05-10T03:21:22;16.35;;;10.25;;
53533;SDS011;39421;53.204;6.568;2023-05-10T03:23:51;15.93;;;9.68;;
53533;SDS011;39421;53.204;6.568;2023-05-10T03:26:20;16.77;;;10.23;;
53533;SDS011;39421;53.204;6.568;2023-05-10T03:28:47;16.85;;;10.68;;
53533;SDS011;39421;53.204;6.568;2023-05-10T03:31:14;17.03;;;10.80;;
53533;SDS011;39421;53.204;6.568;2023-05-10T03:33:47;16.47;;;10.50;;
53533;SDS011;39421;53.204;6.568;2023-05-10T03:36:13;16.55;;;10.45;;
53533;SDS011;39421;53.204;6.568;2023-05-10T03:38:39;17.67;;;10.98;;
53533;SDS011;39421;53.204;6.568;2023-05-10T03:41:05;17.52;;;11.05;;
53533;SDS011;39421;53.204;6.568;2023-05-10T03:43:31;18.60;;;11.23;;
53533;SDS011;39421;53.204;6.568;2023-05-10T03:45:58;18.60;;;11.93;;
53533;SDS011;39421;53.204;6.568;2023-05-10T03:48:24;20.05;;;12.30;;
53533;SDS011;39421;53.204;6.568;2023-05-10T03:50:50;21.58;;;12.73;;
53533;SDS011;39421;53.204;6.568;2023-05-10T03:53:16;22.95;;;12.60;;
53533;SDS011;39421;53.204;6.568;2023-05-10T03:55:42;21.35;;;12.27;;
53533;SDS011;39421;53.204;6.568;2023-05-10T03:58:11;21.63;;;12.77;;
53533;SDS011;39421;53.204;6.568;2023-05-10T04:00:37;21.55;;;12.90;;
53533;SDS011;39421;53.204;6.568;2023-05-10T04:03:08;21.95;;;12.48;;
53533;SDS011;39421;53.204;6.568;2023-05-10T04:05:35;20.65;;;12.18;;
53533;SDS011;39421;53.204;6.568;2023-05-10T04:08:01;20.97;;;12.47;;
53533;SDS011;39421;53.204;6.568;2023-05-10T04:10:27;22.20;;;12.88;;
53533;SDS011;39421;53.204;6.568;2023-05-10T04:12:53;21.95;;;12.18;;
53533;SDS011;39421;53.204;6.568;2023-05-10T04:15:19;20.77;;;12.10;;
53533;SDS011;39421;53.204;6.568;2023-05-10T04:17:45;20.27;;;11.20;;
53533;SDS011;39421;53.204;6.568;2023-05-10T04:20:12;19.75;;;10.88;;
53533;SDS011;39421;53.204;6.568;2023-05-10T04:22:38;20.40;;;11.13;;
53533;SDS011;39421;53.204;6.568;2023-05-10T04:25:04;20.10;;;11.48;;
53533;SDS011;39421;53.204;6.568;2023-05-10T04:27:31;17.38;;;10.35;;
53533;SDS011;39421;53.204;6.568;2023-05-10T04:29:57;17.37;;;10.00;;
53533;SDS011;39421;53.204;6.568;2023-05-10T04:32:23;14.13;;;8.65;;
53533;SDS011;39421;53.204;6.568;2023-05-10T04:34:49;13.20;;;7.75;;
53533;SDS011;39421;53.204;6.568;2023-05-10T04:37:16;12.10;;;6.57;;
53533;SDS011;39421;53.204;6.568;2023-05-10T04:39:42;11.05;;;6.65;;
53533;SDS011;39421;53.204;6.568;2023-05-10T04:42:09;10.57;;;5.93;;
53533;SDS011;39421;53.204;6.568;2023-05-10T04:44:35;9.02;;;4.97;;
53533;SDS011;39421;53.204;6.568;2023-05-10T04:47:01;9.10;;;5.10;;
53533;SDS011;39421;53.204;6.568;2023-05-10T04:49:28;8.88;;;4.80;;
53533;SDS011;39421;53.204;6.568;2023-05-10T04:51:54;7.70;;;4.63;;
53533;SDS011;39421;53.204;6.568;2023-05-10T04:54:20;8.93;;;4.45;;
53533;SDS011;39421;53.204;6.568;2023-05-10T04:56:47;8.32;;;4.50;;
53533;SDS011;39421;53.204;6.568;2023-05-10T04:59:13;7.97;;;4.30;;
53533;SDS011;39421;53.204;6.568;2023-05-10T05:01:39;7.65;;;4.30;;
53533;SDS011;39421;53.204;6.568;2023-05-10T05:04:05;7.63;;;4.40;;
53533;SDS011;39421;53.204;6.568;2023-05-10T05:06:32;8.40;;;4.90;;
53533;SDS011;39421;53.204;6.568;2023-05-10T05:08:58;8.30;;;4.37;;
53533;SDS011;39421;53.204;6.568;2023-05-10T05:11:24;9.02;;;5.20;;
53533;SDS011;39421;53.204;6.568;2023-05-10T05:13:50;8.43;;;4.97;;
53533;SDS011;39421;53.204;6.568;2023-05-10T05:16:16;8.32;;;5.13;;
53533;SDS011;39421;53.204;6.568;2023-05-10T05:18:43;8.90;;;5.20;;
53533;SDS011;39421;53.204;6.568;2023-05-10T05:21:15;8.52;;;4.70;;
53533;SDS011;39421;53.204;6.568;2023-05-10T05:23:41;9.80;;;5.20;;
53533;SDS011;39421;53.204;6.568;2023-05-10T05:26:08;9.52;;;5.30;;
53533;SDS011;39421;53.204;6.568;2023-05-10T05:28:34;8.90;;;5.30;;
53533;SDS011;39421;53.204;6.568;2023-05-10T05:31:05;8.30;;;4.93;;
53533;SDS011;39421;53.204;6.568;2023-05-10T05:33:32;8.90;;;5.07;;
53533;SDS011;39421;53.204;6.568;2023-05-10T05:36:02;9.15;;;5.00;;
53533;SDS011;39421;53.204;6.568;2023-05-10T05:38:28;8.30;;;5.00;;
53533;SDS011;39421;53.204;6.568;2023-05-10T05:40:54;9.95;;;5.70;;
53533;SDS011;39421;53.204;6.568;2023-05-10T05:43:20;9.77;;;5.20;;
53533;SDS011;39421;53.204;6.568;2023-05-10T05:45:46;8.73;;;5.17;;
53533;SDS011;39421;53.204;6.568;2023-05-10T05:48:13;8.90;;;5.22;;
53533;SDS011;39421;53.204;6.568;2023-05-10T05:50:39;9.02;;;5.53;;
53533;SDS011;39421;53.204;6.568;2023-05-10T05:53:05;9.82;;;5.50;;
53533;SDS011;39421;53.204;6.568;2023-05-10T05:55:31;8.90;;;5.43;;
53533;SDS011;39421;53.204;6.568;2023-05-10T05:57:57;9.38;;;4.80;;
53533;SDS011;39421;53.204;6.568;2023-05-10T06:00:23;8.43;;;4.80;;
53533;SDS011;39421;53.204;6.568;2023-05-10T06:02:51;9.25;;;5.00;;
53533;SDS011;39421;53.204;6.568;2023-05-10T06:05:17;9.00;;;4.80;;
53533;SDS011;39421;53.204;6.568;2023-05-10T06:07:43;8.60;;;4.90;;
53533;SDS011;39421;53.204;6.568;2023-05-10T06:10:09;8.90;;;4.85;;
53533;SDS011;39421;53.204;6.568;2023-05-10T06:12:35;7.90;;;4.10;;
53533;SDS011;39421;53.204;6.568;2023-05-10T06:15:02;7.47;;;3.60;;
53533;SDS011;39421;53.204;6.568;2023-05-10T06:17:28;7.17;;;3.40;;
53533;SDS011;39421;53.204;6.568;2023-05-10T06:19:54;6.20;;;2.92;;
53533;SDS011;39421;53.204;6.568;2023-05-10T06:22:20;5.10;;;2.47;;
53533;SDS011;39421;53.204;6.568;2023-05-10T06:24:48;4.77;;;2.33;;
53533;SDS011;39421;53.204;6.568;2023-05-10T06:27:14;4.38;;;2.10;;
53533;SDS011;39421;53.204;6.568;2023-05-10T06:29:41;4.07;;;2.00;;
53533;SDS011;39421;53.204;6.568;2023-05-10T06:32:07;4.35;;;2.13;;
53533;SDS011;39421;53.204;6.568;2023-05-10T06:34:33;4.82;;;2.20;;
53533;SDS011;39421;53.204;6.568;2023-05-10T06:36:59;7.05;;;3.40;;
53533;SDS011;39421;53.204;6.568;2023-05-10T06:39:25;8.63;;;4.80;;
53533;SDS011;39421;53.204;6.568;2023-05-10T06:41:51;10.15;;;6.07;;
53533;SDS011;39421;53.204;6.568;2023-05-10T06:44:17;10.10;;;6.10;;
53533;SDS011;39421;53.204;6.568;2023-05-10T06:46:43;11.23;;;6.95;;
53533;SDS011;39421;53.204;6.568;2023-05-10T06:49:09;11.27;;;7.28;;
53533;SDS011;39421;53.204;6.568;2023-05-10T06:51:36;10.38;;;6.30;;
53533;SDS011;39421;53.204;6.568;2023-05-10T06:54:02;11.10;;;6.50;;
53533;SDS011;39421;53.204;6.568;2023-05-10T06:56:28;11.52;;;6.55;;
53533;SDS011;39421;53.204;6.568;2023-05-10T06:58:54;11.07;;;6.82;;
53533;SDS011;39421;53.204;6.568;2023-05-10T07:01:20;10.13;;;6.10;;
53533;SDS011;39421;53.204;6.568;2023-05-10T07:03:47;10.35;;;6.00;;
53533;SDS011;39421;53.204;6.568;2023-05-10T07:06:13;9.38;;;5.80;;
53533;SDS011;39421;53.204;6.568;2023-05-10T07:08:39;10.15;;;5.57;;
53533;SDS011;39421;53.204;6.568;2023-05-10T07:11:05;8.88;;;4.57;;
53533;SDS011;39421;53.204;6.568;2023-05-10T07:13:32;9.55;;;5.10;;
53533;SDS011;39421;53.204;6.568;2023-05-10T07:15:59;8.07;;;4.65;;
53533;SDS011;39421;53.204;6.568;2023-05-10T07:18:27;8.25;;;4.70;;
53533;SDS011;39421;53.204;6.568;2023-05-10T07:20:53;8.43;;;4.60;;
53533;SDS011;39421;53.204;6.568;2023-05-10T07:23:19;7.70;;;3.90;;
53533;SDS011;39421;53.204;6.568;2023-05-10T07:25:46;6.30;;;3.50;;
53533;SDS011;39421;53.204;6.568;2023-05-10T07:28:12;7.20;;;3.63;;
53533;SDS011;39421;53.204;6.568;2023-05-10T07:30:39;7.57;;;3.92;;
53533;SDS011;39421;53.204;6.568;2023-05-10T07:33:05;7.10;;;3.60;;
53533;SDS011;39421;53.204;6.568;2023-05-10T07:35:32;7.38;;;3.70;;
53533;SDS011;39421;53.204;6.568;2023-05-10T07:37:58;6.90;;;3.78;;
53533;SDS011;39421;53.204;6.568;2023-05-10T07:40:24;6.75;;;3.67;;
53533;SDS011;39421;53.204;6.568;2023-05-10T07:42:51;7.00;;;3.88;;
53533;SDS011;39421;53.204;6.568;2023-05-10T07:45:17;6.53;;;3.27;;
53533;SDS011;39421;53.204;6.568;2023-05-10T07:47:43;5.55;;;2.85;;
53533;SDS011;39421;53.204;6.568;2023-05-10T07:50:10;4.75;;;2.58;;
53533;SDS011;39421;53.204;6.568;2023-05-10T07:52:36;5.30;;;2.80;;
53533;SDS011;39421;53.204;6.568;2023-05-10T07:55:02;5.75;;;3.20;;
53533;SDS011;39421;53.204;6.568;2023-05-10T07:57:28;5.93;;;2.88;;
53533;SDS011;39421;53.204;6.568;2023-05-10T07:59:54;5.57;;;2.88;;
53533;SDS011;39421;53.204;6.568;2023-05-10T08:02:20;5.70;;;3.03;;
53533;SDS011;39421;53.204;6.568;2023-05-10T08:04:46;6.25;;;3.42;;
53533;SDS011;39421;53.204;6.568;2023-05-10T08:07:12;7.30;;;3.60;;
53533;SDS011;39421;53.204;6.568;2023-05-10T08:09:39;6.97;;;3.50;;
53533;SDS011;39421;53.204;6.568;2023-05-10T08:12:05;8.05;;;3.90;;
53533;SDS011;39421;53.204;6.568;2023-05-10T08:14:31;7.40;;;3.78;;
53533;SDS011;39421;53.204;6.568;2023-05-10T08:16:57;8.15;;;3.72;;
53533;SDS011;39421;53.204;6.568;2023-05-10T08:19:23;6.90;;;3.60;;
53533;SDS011;39421;53.204;6.568;2023-05-10T08:21:49;7.47;;;3.53;;
53533;SDS011;39421;53.204;6.568;2023-05-10T08:24:15;7.40;;;3.70;;
53533;SDS011;39421;53.204;6.568;2023-05-10T08:26:42;7.20;;;3.63;;
53533;SDS011;39421;53.204;6.568;2023-05-10T08:29:08;8.18;;;4.10;;
53533;SDS011;39421;53.204;6.568;2023-05-10T08:31:34;7.40;;;3.72;;
53533;SDS011;39421;53.204;6.568;2023-05-10T08:34:00;7.70;;;3.87;;
53533;SDS011;39421;53.204;6.568;2023-05-10T08:36:26;7.40;;;3.85;;
53533;SDS011;39421;53.204;6.568;2023-05-10T08:38:53;7.93;;;3.65;;
53533;SDS011;39421;53.204;6.568;2023-05-10T08:41:20;8.15;;;4.20;;
53533;SDS011;39421;53.204;6.568;2023-05-10T08:43:46;8.03;;;4.20;;
53533;SDS011;39421;53.204;6.568;2023-05-10T08:46:17;8.05;;;4.40;;
53533;SDS011;39421;53.204;6.568;2023-05-10T08:48:46;7.30;;;4.20;;
53533;SDS011;39421;53.204;6.568;2023-05-10T08:51:13;7.70;;;4.25;;
53533;SDS011;39421;53.204;6.568;2023-05-10T08:53:40;6.97;;;3.67;;
53533;SDS011;39421;53.204;6.568;2023-05-10T08:56:06;6.78;;;3.30;;
53533;SDS011;39421;53.204;6.568;2023-05-10T08:58:32;7.30;;;3.50;;
53533;SDS011;39421;53.204;6.568;2023-05-10T09:00:59;5.93;;;3.08;;
53533;SDS011;39421;53.204;6.568;2023-05-10T09:03:25;6.03;;;3.20;;
53533;SDS011;39421;53.204;6.568;2023-05-10T09:05:51;6.70;;;3.70;;
53533;SDS011;39421;53.204;6.568;2023-05-10T09:08:17;7.75;;;4.25;;
53533;SDS011;39421;53.204;6.568;2023-05-10T09:10:44;7.67;;;4.20;;
53533;SDS011;39421;53.204;6.568;2023-05-10T09:13:12;7.90;;;4.33;;
53533;SDS011;39421;53.204;6.568;2023-05-10T09:15:39;9.57;;;4.65;;
53533;SDS011;39421;53.204;6.568;2023-05-10T09:18:05;8.27;;;4.47;;
53533;SDS011;39421;53.204;6.568;2023-05-10T09:20:31;8.77;;;4.25;;
53533;SDS011;39421;53.204;6.568;2023-05-10T09:22:57;8.10;;;4.15;;
53533;SDS011;39421;53.204;6.568;2023-05-10T09:25:23;9.30;;;4.38;;
53533;SDS011;39421;53.204;6.568;2023-05-10T09:27:49;8.27;;;4.50;;
53533;SDS011;39421;53.204;6.568;2023-05-10T09:30:17;8.30;;;4.10;;
53533;SDS011;39421;53.204;6.568;2023-05-10T09:32:44;8.00;;;4.22;;
53533;SDS011;39421;53.204;6.568;2023-05-10T09:35:14;8.50;;;4.57;;
53533;SDS011;39421;53.204;6.568;2023-05-10T09:37:41;8.32;;;4.60;;
53533;SDS011;39421;53.204;6.568;2023-05-10T09:40:08;9.48;;;4.70;;
53533;SDS011;39421;53.204;6.568;2023-05-10T09:42:36;9.15;;;5.10;;
53533;SDS011;39421;53.204;6.568;2023-05-10T09:45:03;9.20;;;4.63;;
53533;SDS011;39421;53.204;6.568;2023-05-10T09:47:36;8.77;;;4.50;;
53533;SDS011;39421;53.204;6.568;2023-05-10T09:50:02;9.60;;;4.72;;
53533;SDS011;39421;53.204;6.568;2023-05-10T09:52:48;8.48;;;4.30;;
53533;SDS011;39421;53.204;6.568;2023-05-10T09:55:16;8.63;;;4.20;;
53533;SDS011;39421;53.204;6.568;2023-05-10T09:57:42;8.30;;;4.27;;
53533;SDS011;39421;53.204;6.568;2023-05-10T10:00:08;8.98;;;4.40;;
53533;SDS011;39421;53.204;6.568;2023-05-10T10:02:35;8.95;;;4.40;;
53533;SDS011;39421;53.204;6.568;2023-05-10T10:05:01;7.82;;;4.00;;
53533;SDS011;39421;53.204;6.568;2023-05-10T10:07:28;9.43;;;4.47;;
53533;SDS011;39421;53.204;6.568;2023-05-10T10:09:54;8.55;;;4.28;;
53533;SDS011;39421;53.204;6.568;2023-05-10T10:12:21;8.52;;;4.03;;
53533;SDS011;39421;53.204;6.568;2023-05-10T10:14:47;9.07;;;4.50;;
53533;SDS011;39421;53.204;6.568;2023-05-10T10:17:15;10.02;;;4.70;;
53533;SDS011;39421;53.204;6.568;2023-05-10T10:19:41;9.50;;;4.60;;
53533;SDS011;39421;53.204;6.568;2023-05-10T10:22:08;9.52;;;4.43;;
53533;SDS011;39421;53.204;6.568;2023-05-10T10:24:37;9.07;;;4.05;;
53533;SDS011;39421;53.204;6.568;2023-05-10T10:27:08;8.85;;;3.92;;
53533;SDS011;39421;53.204;6.568;2023-05-10T10:29:59;8.77;;;4.50;;
53533;SDS011;39421;53.204;6.568;2023-05-10T10:32:27;8.10;;;4.20;;
53533;SDS011;39421;53.204;6.568;2023-05-10T10:34:55;9.27;;;3.90;;
53533;SDS011;39421;53.204;6.568;2023-05-10T10:37:21;8.55;;;4.00;;
53533;SDS011;39421;53.204;6.568;2023-05-10T10:39:48;8.75;;;4.30;;
53533;SDS011;39421;53.204;6.568;2023-05-10T10:42:15;8.52;;;4.65;;
53533;SDS011;39421;53.204;6.568;2023-05-10T10:45:13;8.60;;;4.70;;
53533;SDS011;39421;53.204;6.568;2023-05-10T10:47:39;9.05;;;4.57;;
53533;SDS011;39421;53.204;6.568;2023-05-10T10:50:08;9.55;;;4.88;;
53533;SDS011;39421;53.204;6.568;2023-05-10T10:52:39;10.23;;;5.13;;
53533;SDS011;39421;53.204;6.568;2023-05-10T10:55:09;9.40;;;5.40;;
53533;SDS011;39421;53.204;6.568;2023-05-10T10:57:52;13.60;;;8.10;;
53533;SDS011;39421;53.204;6.568;2023-05-10T11:03:11;10.68;;;5.70;;
53533;SDS011;39421;53.204;6.568;2023-05-10T11:08:28;9.95;;;6.18;;
53533;SDS011;39421;53.204;6.568;2023-05-10T11:15:54;9.85;;;5.63;;
53533;SDS011;39421;53.204;6.568;2023-05-10T11:18:26;10.13;;;6.03;;
53533;SDS011;39421;53.204;6.568;2023-05-10T11:23:21;9.95;;;5.85;;
53533;SDS011;39421;53.204;6.568;2023-05-10T11:25:48;10.57;;;6.10;;
53533;SDS011;39421;53.204;6.568;2023-05-10T11:28:16;10.75;;;6.30;;
53533;SDS011;39421;53.204;6.568;2023-05-10T11:30:44;11.90;;;6.50;;
53533;SDS011;39421;53.204;6.568;2023-05-10T11:33:14;10.82;;;6.15;;
53533;SDS011;39421;53.204;6.568;2023-05-10T11:35:41;11.48;;;6.22;;
53533;SDS011;39421;53.204;6.568;2023-05-10T11:38:10;11.27;;;6.82;;
53533;SDS011;39421;53.204;6.568;2023-05-10T11:40:37;11.65;;;6.70;;
53533;SDS011;39421;53.204;6.568;2023-05-10T11:43:04;13.20;;;6.63;;
53533;SDS011;39421;53.204;6.568;2023-05-10T11:45:33;13.27;;;7.30;;
53533;SDS011;39421;53.204;6.568;2023-05-10T11:48:00;13.23;;;6.90;;
53533;SDS011;39421;53.204;6.568;2023-05-10T11:50:26;12.82;;;7.22;;
53533;SDS011;39421;53.204;6.568;2023-05-10T11:52:53;12.05;;;6.72;;
53533;SDS011;39421;53.204;6.568;2023-05-10T11:55:20;12.20;;;7.03;;
53533;SDS011;39421;53.204;6.568;2023-05-10T11:57:46;13.48;;;6.70;;
53533;SDS011;39421;53.204;6.568;2023-05-10T12:00:13;12.63;;;6.95;;
53533;SDS011;39421;53.204;6.568;2023-05-10T12:02:39;12.07;;;6.60;;
53533;SDS011;39421;53.204;6.568;2023-05-10T12:05:06;13.02;;;6.78;;
53533;SDS011;39421;53.204;6.568;2023-05-10T12:07:32;13.27;;;6.80;;
53533;SDS011;39421;53.204;6.568;2023-05-10T12:10:02;11.73;;;6.38;;
53533;SDS011;39421;53.204;6.568;2023-05-10T12:13:01;12.50;;;6.60;;
53533;SDS011;39421;53.204;6.568;2023-05-10T12:15:21;12.43;;;6.30;;
53533;SDS011;39421;53.204;6.568;2023-05-10T12:17:48;12.17;;;6.77;;
53533;SDS011;39421;53.204;6.568;2023-05-10T12:20:21;14.40;;;7.20;;
53533;SDS011;39421;53.204;6.568;2023-05-10T12:22:51;12.77;;;7.13;;
53533;SDS011;39421;53.204;6.568;2023-05-10T12:25:21;13.55;;;7.22;;
53533;SDS011;39421;53.204;6.568;2023-05-10T12:27:54;12.38;;;6.82;;
53533;SDS011;39421;53.204;6.568;2023-05-10T12:30:21;12.80;;;6.67;;
53533;SDS011;39421;53.204;6.568;2023-05-10T12:32:47;14.00;;;7.38;;
53533;SDS011;39421;53.204;6.568;2023-05-10T12:35:14;12.90;;;7.13;;
53533;SDS011;39421;53.204;6.568;2023-05-10T12:37:41;15.52;;;7.50;;
53533;SDS011;39421;53.204;6.568;2023-05-10T12:40:08;13.45;;;7.45;;
53533;SDS011;39421;53.204;6.568;2023-05-10T12:42:35;13.40;;;7.07;;
53533;SDS011;39421;53.204;6.568;2023-05-10T12:45:02;15.85;;;7.88;;
53533;SDS011;39421;53.204;6.568;2023-05-10T12:47:28;14.52;;;8.13;;
53533;SDS011;39421;53.204;6.568;2023-05-10T12:49:55;14.13;;;7.53;;
53533;SDS011;39421;53.204;6.568;2023-05-10T12:52:21;18.67;;;8.13;;
53533;SDS011;39421;53.204;6.568;2023-05-10T12:54:47;12.98;;;6.75;;
53533;SDS011;39421;53.204;6.568;2023-05-10T12:57:14;16.25;;;7.72;;
53533;SDS011;39421;53.204;6.568;2023-05-10T12:59:40;13.27;;;7.20;;
53533;SDS011;39421;53.204;6.568;2023-05-10T13:02:06;13.20;;;7.27;;
53533;SDS011;39421;53.204;6.568;2023-05-10T13:04:32;13.68;;;7.40;;
53533;SDS011;39421;53.204;6.568;2023-05-10T13:06:58;13.13;;;7.53;;
53533;SDS011;39421;53.204;6.568;2023-05-10T13:09:25;12.70;;;7.20;;
53533;SDS011;39421;53.204;6.568;2023-05-10T13:11:53;14.35;;;7.70;;
53533;SDS011;39421;53.204;6.568;2023-05-10T13:14:19;13.80;;;7.65;;
53533;SDS011;39421;53.204;6.568;2023-05-10T13:16:46;15.15;;;7.90;;
53533;SDS011;39421;53.204;6.568;2023-05-10T13:19:12;15.88;;;7.85;;
53533;SDS011;39421;53.204;6.568;2023-05-10T13:21:38;16.27;;;7.97;;
53533;SDS011;39421;53.204;6.568;2023-05-10T13:24:09;12.85;;;7.07;;
53533;SDS011;39421;53.204;6.568;2023-05-10T13:26:35;20.05;;;8.13;;
53533;SDS011;39421;53.204;6.568;2023-05-10T13:29:02;13.07;;;6.90;;
53533;SDS011;39421;53.204;6.568;2023-05-10T13:31:28;14.40;;;7.43;;
53533;SDS011;39421;53.204;6.568;2023-05-10T13:33:55;14.05;;;7.85;;
53533;SDS011;39421;53.204;6.568;2023-05-10T13:36:21;12.65;;;7.30;;
53533;SDS011;39421;53.204;6.568;2023-05-10T13:38:47;14.88;;;7.63;;
53533;SDS011;39421;53.204;6.568;2023-05-10T13:41:14;12.87;;;7.07;;
53533;SDS011;39421;53.204;6.568;2023-05-10T13:43:40;14.05;;;7.57;;
53533;SDS011;39421;53.204;6.568;2023-05-10T13:46:06;13.43;;;7.30;;
53533;SDS011;39421;53.204;6.568;2023-05-10T13:48:32;14.53;;;7.83;;
53533;SDS011;39421;53.204;6.568;2023-05-10T13:50:58;13.48;;;7.32;;
53533;SDS011;39421;53.204;6.568;2023-05-10T13:53:24;12.38;;;7.20;;
53533;SDS011;39421;53.204;6.568;2023-05-10T13:55:51;13.90;;;7.35;;
53533;SDS011;39421;53.204;6.568;2023-05-10T13:58:17;12.50;;;7.05;;
53533;SDS011;39421;53.204;6.568;2023-05-10T14:00:43;11.60;;;7.00;;
53533;SDS011;39421;53.204;6.568;2023-05-10T14:03:09;12.90;;;7.43;;
53533;SDS011;39421;53.204;6.568;2023-05-10T14:05:35;12.07;;;7.13;;
53533;SDS011;39421;53.204;6.568;2023-05-10T14:08:02;12.90;;;6.72;;
53533;SDS011;39421;53.204;6.568;2023-05-10T14:10:29;13.20;;;7.35;;
53533;SDS011;39421;53.204;6.568;2023-05-10T14:12:55;13.55;;;7.80;;
53533;SDS011;39421;53.204;6.568;2023-05-10T14:15:21;13.77;;;7.27;;
53533;SDS011;39421;53.204;6.568;2023-05-10T14:17:48;12.97;;;7.20;;
53533;SDS011;39421;53.204;6.568;2023-05-10T14:20:14;13.18;;;7.22;;
53533;SDS011;39421;53.204;6.568;2023-05-10T14:22:42;12.68;;;7.00;;
53533;SDS011;39421;53.204;6.568;2023-05-10T14:25:08;13.68;;;7.50;;
53533;SDS011;39421;53.204;6.568;2023-05-10T14:27:34;13.20;;;7.20;;
53533;SDS011;39421;53.204;6.568;2023-05-10T14:30:00;14.00;;;7.33;;
53533;SDS011;39421;53.204;6.568;2023-05-10T14:32:26;13.85;;;8.13;;
53533;SDS011;39421;53.204;6.568;2023-05-10T14:34:53;14.43;;;8.13;;
53533;SDS011;39421;53.204;6.568;2023-05-10T14:37:19;14.65;;;8.80;;
53533;SDS011;39421;53.204;6.568;2023-05-10T14:39:46;15.17;;;8.67;;
53533;SDS011;39421;53.204;6.568;2023-05-10T14:42:12;14.85;;;8.50;;
53533;SDS011;39421;53.204;6.568;2023-05-10T14:44:38;13.80;;;8.18;;
53533;SDS011;39421;53.204;6.568;2023-05-10T14:47:04;15.70;;;8.77;;
53533;SDS011;39421;53.204;6.568;2023-05-10T14:49:30;15.40;;;8.10;;
53533;SDS011;39421;53.204;6.568;2023-05-10T14:51:56;14.70;;;8.00;;
53533;SDS011;39421;53.204;6.568;2023-05-10T14:54:23;14.63;;;7.72;;
53533;SDS011;39421;53.204;6.568;2023-05-10T14:56:49;15.15;;;7.78;;
53533;SDS011;39421;53.204;6.568;2023-05-10T14:59:15;13.95;;;8.10;;
53533;SDS011;39421;53.204;6.568;2023-05-10T15:01:41;13.77;;;7.90;;
53533;SDS011;39421;53.204;6.568;2023-05-10T15:04:08;14.55;;;8.10;;
53533;SDS011;39421;53.204;6.568;2023-05-10T15:06:34;13.57;;;8.00;;
53533;SDS011;39421;53.204;6.568;2023-05-10T15:09:01;14.05;;;7.88;;
53533;SDS011;39421;53.204;6.568;2023-05-10T15:11:27;14.07;;;8.07;;